createdAt,value
2022-08-09T00:01:10.675Z,87.40
2022-08-09T00:04:08.534Z,88.30
2022-08-09T00:06:30.168Z,88.90
2022-08-09T00:08:59.021Z,90.00
2022-08-09T00:11:55.025Z,90.70
2022-08-09T00:14:17.379Z,91.10
2022-08-09T00:16:49.389Z,91.30
2022-08-09T00:19:18.458Z,92.00
2022-08-09T00:21:56.589Z,92.90
2022-08-09T00:24:25.215Z,93.30
2022-08-09T00:26:54.682Z,93.90
2022-08-09T00:29:39.228Z,94.70
2022-08-09T00:32:08.305Z,94.90
2022-08-09T00:34:39.631Z,95.50
2022-08-09T00:37:13.208Z,96.20
2022-08-09T00:40:10.219Z,96.10
2022-08-09T00:46:56.589Z,97.00
2022-08-09T00:49:28.095Z,98.10
2022-08-09T00:51:57.158Z,98.40
2022-08-09T00:54:35.251Z,99.00
2022-08-09T00:57:08.804Z,99.80
2022-08-09T00:59:41.378Z,99.50
2022-08-09T01:02:15.840Z,99.90
2022-08-09T01:04:58.004Z,99.90
2022-08-09T01:07:37.754Z,99.90
2022-08-09T01:10:38.845Z,99.90
2022-08-09T01:13:24.969Z,99.90
2022-08-09T01:15:58.087Z,99.90
2022-08-09T01:18:29.959Z,99.90
2022-08-09T01:21:19.619Z,99.90
2022-08-09T01:24:08.826Z,99.90
2022-08-09T01:27:00.858Z,99.90
2022-08-09T01:29:56.305Z,99.90
2022-08-09T01:32:31.067Z,99.90
2022-08-09T01:35:00.519Z,99.90
2022-08-09T01:38:09.800Z,99.90
2022-08-09T01:40:31.803Z,99.90
2022-08-09T01:42:58.609Z,99.90
2022-08-09T01:45:25.519Z,99.90
2022-08-09T01:47:52.440Z,99.90
2022-08-09T01:50:19.287Z,99.90
2022-08-09T01:52:56.845Z,99.90
2022-08-09T01:55:24.812Z,99.90
2022-08-09T01:57:53.074Z,99.90
2022-08-09T02:00:35.831Z,99.90
2022-08-09T02:03:03.247Z,99.90
2022-08-09T02:05:35.481Z,99.90
2022-08-09T02:08:39.538Z,99.90
2022-08-09T02:10:55.321Z,99.90
2022-08-09T02:13:26.094Z,99.90
2022-08-09T02:16:04.983Z,99.90
2022-08-09T02:18:31.918Z,99.90
2022-08-09T02:21:00.179Z,99.90
2022-08-09T02:23:39.823Z,99.90
2022-08-09T02:26:25.378Z,99.90
2022-08-09T02:29:00.054Z,99.90
2022-08-09T02:31:36.431Z,99.90
2022-08-09T02:34:13.268Z,99.90
2022-08-09T02:36:46.577Z,99.90
2022-08-09T02:39:19.905Z,99.90
2022-08-09T02:41:53.740Z,99.90
2022-08-09T02:44:29.378Z,99.90
2022-08-09T02:46:58.120Z,99.90
2022-08-09T02:49:38.508Z,99.90
2022-08-09T02:52:06.470Z,99.90
2022-08-09T02:54:34.715Z,99.90
2022-08-09T02:57:14.084Z,99.90
2022-08-09T03:00:20.871Z,99.90
2022-08-09T03:02:46.471Z,99.90
2022-08-09T03:05:27.103Z,99.90
2022-08-09T03:07:55.109Z,99.90
2022-08-09T03:10:22.901Z,99.90
2022-08-09T03:12:52.156Z,99.90
2022-08-09T03:15:20.791Z,99.90
2022-08-09T03:17:57.793Z,99.90
2022-08-09T03:20:29.545Z,99.90
2022-08-09T03:22:58.209Z,99.90
2022-08-09T03:25:57.008Z,99.90
2022-08-09T03:28:12.656Z,99.90
2022-08-09T03:30:40.188Z,99.90
2022-08-09T03:33:17.660Z,99.90
2022-08-09T03:36:15.945Z,99.90
2022-08-09T03:38:41.928Z,99.90
2022-08-09T03:41:15.306Z,99.90
2022-08-09T03:43:51.846Z,99.90
2022-08-09T03:46:31.440Z,99.90
2022-08-09T03:48:59.386Z,99.90
2022-08-09T03:51:57.431Z,99.90
2022-08-09T03:54:18.078Z,99.90
2022-08-09T03:56:57.954Z,99.90
2022-08-09T03:59:42.710Z,99.90
2022-08-09T04:02:11.931Z,99.90
2022-08-09T04:04:41.255Z,99.90
2022-08-09T04:07:13.170Z,99.90
2022-08-09T04:09:48.313Z,99.90
2022-08-09T04:12:41.620Z,99.90
2022-08-09T04:15:29.642Z,99.90
2022-08-09T04:17:58.719Z,99.90
2022-08-09T04:20:25.985Z,99.90
2022-08-09T04:22:53.343Z,99.90
2022-08-09T04:25:20.952Z,99.90
2022-08-09T04:27:49.373Z,99.90
2022-08-09T04:30:20.936Z,99.90
2022-08-09T04:32:50.520Z,99.90
2022-08-09T04:35:17.464Z,99.90
2022-08-09T04:37:49.647Z,99.90
2022-08-09T04:40:28.614Z,99.90
2022-08-09T04:43:03.458Z,99.90
2022-08-09T04:45:31.058Z,99.90
2022-08-09T04:48:07.941Z,99.90
2022-08-09T04:50:38.110Z,99.90
2022-08-09T04:53:11.645Z,99.90
2022-08-09T04:55:52.610Z,99.90
2022-08-09T04:58:24.532Z,99.90
2022-08-09T05:00:55.291Z,99.90
2022-08-09T05:03:40.434Z,99.90
2022-08-09T05:06:21.767Z,99.90
2022-08-09T05:09:00.787Z,99.90
2022-08-09T05:11:32.226Z,99.90
2022-08-09T05:14:06.229Z,99.90
2022-08-09T05:16:58.379Z,99.90
2022-08-09T05:19:26.082Z,99.90
2022-08-09T05:21:55.327Z,99.90
2022-08-09T05:24:24.303Z,99.90
2022-08-09T05:26:52.195Z,99.90
2022-08-09T05:29:23.987Z,99.90
2022-08-09T05:31:56.315Z,99.90
2022-08-09T05:34:30.070Z,99.90
2022-08-09T05:37:06.344Z,99.90
2022-08-09T05:39:43.831Z,99.90
2022-08-09T05:42:21.320Z,99.90
2022-08-09T05:44:50.647Z,99.90
2022-08-09T05:47:19.362Z,99.90
2022-08-09T05:50:25.629Z,99.90
2022-08-09T05:52:36.192Z,99.90
2022-08-09T05:55:07.268Z,99.90
2022-08-09T05:57:56.099Z,99.90
2022-08-09T06:00:23.147Z,99.90
2022-08-09T06:03:44.057Z,99.90
2022-08-09T06:06:21.143Z,99.90
2022-08-09T06:08:52.475Z,99.90
2022-08-09T06:11:19.718Z,99.90
2022-08-09T06:13:51.251Z,99.90
2022-08-09T06:16:18.126Z,99.90
2022-08-09T06:18:45.025Z,99.90
2022-08-09T06:21:11.903Z,99.90
2022-08-09T06:23:57.135Z,99.90
2022-08-09T06:26:28.403Z,99.90
2022-08-09T06:29:00.087Z,99.90
2022-08-09T06:31:39.862Z,99.90
2022-08-09T06:34:18.941Z,99.90
2022-08-09T06:36:46.013Z,99.90
2022-08-09T06:39:13.564Z,99.10
2022-08-09T06:42:09.149Z,98.70
2022-08-09T06:44:31.074Z,98.10
2022-08-09T06:46:58.116Z,96.40
2022-08-09T06:49:44.636Z,95.90
2022-08-09T06:52:15.863Z,95.90
2022-08-09T06:54:43.525Z,94.10
2022-08-09T06:57:11.979Z,92.20
2022-08-09T07:00:49.068Z,91.40
2022-08-09T07:02:30.822Z,90.00
2022-08-09T07:04:57.834Z,87.60
2022-08-09T07:07:58.598Z,86.10
2022-08-09T07:10:29.596Z,83.50
2022-08-09T07:12:58.444Z,81.00
2022-08-09T07:16:35.245Z,80.50
2022-08-09T07:18:14.195Z,79.30
2022-08-09T07:20:43.772Z,79.10
2022-08-09T07:23:18.919Z,78.50
2022-08-09T07:25:47.930Z,77.10
2022-08-09T07:28:28.071Z,76.10
2022-08-09T07:30:55.440Z,74.80
2022-08-09T07:33:22.292Z,73.30
2022-08-09T07:35:54.263Z,72.10
2022-08-09T07:38:21.441Z,71.70
2022-08-09T07:41:08.124Z,71.60
2022-08-09T07:43:49.674Z,69.60
2022-08-09T07:46:19.466Z,68.70
2022-08-09T07:48:52.821Z,68.80
2022-08-09T07:52:05.286Z,68.60
2022-08-09T07:54:14.181Z,67.90
2022-08-09T07:56:45.058Z,68.60
2022-08-09T07:59:34.233Z,67.20
2022-08-09T08:02:05.440Z,66.60
2022-08-09T08:04:33.139Z,66.20
2022-08-09T08:07:14.896Z,65.30
2022-08-09T08:10:07.502Z,64.50
2022-08-09T08:12:42.301Z,63.40
2022-08-09T08:15:16.815Z,62.10
2022-08-09T08:17:53.329Z,61.00
2022-08-09T08:20:29.491Z,59.70
2022-08-09T08:23:03.680Z,59.70
2022-08-09T08:25:44.586Z,59.00
2022-08-09T08:28:14.984Z,58.70
2022-08-09T08:30:43.846Z,58.10
2022-08-09T08:33:11.812Z,57.30
2022-08-09T08:35:59.764Z,56.00
2022-08-09T08:38:26.123Z,55.30
2022-08-09T08:40:55.773Z,54.80
2022-08-09T08:43:23.749Z,54.20
2022-08-09T08:46:32.192Z,54.20
2022-08-09T08:48:52.029Z,53.80
2022-08-09T08:51:22.591Z,52.70
2022-08-09T08:54:04.308Z,52.00
2022-08-09T08:56:38.576Z,51.90
2022-08-09T08:59:19.372Z,51.80
2022-08-09T09:01:52.874Z,51.00
2022-08-09T09:04:27.058Z,50.40
2022-08-09T09:06:55.867Z,50.00
2022-08-09T09:09:58.600Z,49.70
2022-08-09T09:12:16.419Z,49.00
2022-08-09T09:14:44.482Z,48.60
2022-08-09T09:17:16.269Z,48.00
2022-08-09T09:19:43.646Z,47.90
2022-08-09T09:22:15.842Z,47.70
2022-08-09T09:25:00.793Z,47.00
2022-08-09T09:28:04.985Z,46.20
2022-08-09T09:30:41.373Z,45.90
2022-08-09T09:33:16.667Z,45.40
2022-08-09T09:36:01.679Z,45.60
2022-08-09T09:38:49.338Z,44.20
2022-08-09T09:41:28.309Z,44.20
2022-08-09T09:44:12.312Z,43.60
2022-08-09T09:46:50.710Z,43.70
2022-08-09T09:49:32.060Z,43.60
2022-08-09T09:52:33.725Z,43.70
2022-08-09T09:55:02.848Z,43.70
2022-08-09T09:58:02.835Z,43.80
2022-08-09T10:00:32.088Z,43.00
2022-08-09T10:03:00.626Z,43.30
2022-08-09T10:06:04.903Z,42.40
2022-08-09T10:08:32.167Z,42.40
2022-08-09T10:10:59.054Z,42.00
2022-08-09T10:13:45.149Z,41.80
2022-08-09T10:16:58.313Z,41.00
2022-08-09T10:19:07.148Z,40.90
2022-08-09T10:21:44.574Z,40.60
2022-08-09T10:24:25.395Z,40.20
2022-08-09T10:26:56.126Z,39.90
2022-08-09T10:30:22.147Z,40.50
2022-08-09T10:32:38.213Z,39.90
2022-08-09T10:34:58.485Z,39.40
2022-08-09T10:37:26.060Z,39.50
2022-08-09T10:39:54.289Z,39.30
2022-08-09T10:42:21.640Z,38.40
2022-08-09T10:44:57.497Z,37.70
2022-08-09T10:48:26.553Z,37.90
2022-08-09T10:51:09.966Z,34.00
2022-08-09T10:54:02.117Z,32.90
2022-08-09T10:56:41.902Z,32.20
2022-08-09T10:59:31.405Z,32.20
2022-08-09T11:03:11.750Z,31.90
2022-08-09T11:05:06.974Z,31.80
2022-08-09T11:07:56.908Z,31.30
2022-08-09T11:10:53.229Z,30.80
2022-08-09T11:13:51.256Z,30.50
2022-08-09T11:16:35.272Z,30.40
2022-08-09T11:19:09.616Z,31.30
2022-08-09T11:21:55.006Z,31.70
2022-08-09T11:25:08.166Z,29.70
2022-08-09T11:28:05.637Z,29.50
2022-08-09T11:30:34.363Z,29.90
2022-08-09T11:33:17.323Z,29.90
2022-08-09T11:35:49.649Z,29.80
2022-08-09T11:38:32.688Z,30.20
2022-08-09T11:41:13.715Z,30.80
2022-08-09T11:43:43.133Z,30.00
2022-08-09T11:46:10.337Z,29.80
2022-08-09T11:48:49.014Z,29.50
2022-08-09T11:53:03.222Z,29.40
2022-08-09T11:54:21.387Z,29.50
2022-08-09T11:57:47.668Z,29.00
2022-08-09T12:00:27.342Z,29.20
2022-08-09T12:02:56.490Z,28.50
2022-08-09T12:05:39.503Z,28.70
2022-08-09T12:08:12.160Z,28.60
2022-08-09T12:10:48.315Z,29.10
2022-08-09T12:14:07.632Z,29.20
2022-08-09T12:16:37.657Z,28.90
2022-08-09T12:19:06.833Z,28.90
2022-08-09T12:21:50.502Z,28.60
2022-08-09T12:24:24.954Z,28.70
2022-08-09T12:28:58.552Z,28.60
2022-08-09T12:30:02.243Z,28.50
2022-08-09T12:32:40.867Z,28.40
2022-08-09T12:35:10.818Z,28.30
2022-08-09T12:37:44.150Z,28.20
2022-08-09T12:40:18.956Z,28.30
2022-08-09T12:42:46.040Z,27.90
2022-08-09T12:45:32.280Z,28.20
2022-08-09T12:48:00.104Z,27.60
2022-08-09T12:50:27.611Z,27.50
2022-08-09T12:53:09.666Z,28.20
2022-08-09T12:56:12.833Z,28.60
2022-08-09T12:58:29.348Z,28.20
2022-08-09T13:00:56.504Z,29.10
2022-08-09T13:03:53.701Z,29.60
2022-08-09T13:06:36.137Z,29.60
2022-08-09T13:09:18.023Z,29.50
2022-08-09T13:11:47.045Z,29.70
2022-08-09T13:14:40.976Z,29.40
2022-08-09T13:17:08.565Z,29.50
2022-08-09T13:20:10.518Z,29.40
2022-08-09T13:22:36.587Z,29.20
2022-08-09T13:25:15.672Z,29.10
2022-08-09T13:27:54.740Z,29.10
2022-08-09T13:30:50.130Z,29.20
2022-08-09T13:33:17.168Z,29.20
2022-08-09T13:36:24.550Z,29.10
2022-08-09T13:38:57.486Z,29.00
2022-08-09T13:41:59.535Z,28.60
2022-08-09T13:44:13.625Z,28.00
2022-08-09T13:47:29.744Z,27.10
2022-08-09T13:49:39.767Z,27.00
2022-08-09T13:52:18.231Z,27.30
2022-08-09T13:54:58.735Z,27.10
2022-08-09T13:57:37.017Z,26.90
2022-08-09T14:00:17.723Z,27.20
2022-08-09T14:03:16.768Z,27.00
2022-08-09T14:06:01.247Z,27.60
2022-08-09T14:08:21.514Z,27.10
2022-08-09T14:10:50.319Z,26.30
2022-08-09T14:14:16.037Z,26.00
2022-08-09T14:16:14.036Z,26.20
2022-08-09T14:18:49.127Z,25.90
2022-08-09T14:21:18.600Z,25.70
2022-08-09T14:23:54.687Z,25.90
2022-08-09T14:26:33.579Z,25.80
2022-08-09T14:29:02.791Z,25.50
2022-08-09T14:31:36.151Z,25.70
2022-08-09T14:34:17.723Z,25.80
2022-08-09T14:36:59.463Z,25.80
2022-08-09T14:39:45.538Z,25.70
2022-08-09T14:42:13.425Z,25.60
2022-08-09T14:44:59.951Z,25.40
2022-08-09T14:47:45.042Z,25.30
2022-08-09T14:50:16.107Z,25.50
2022-08-09T14:52:43.234Z,25.20
2022-08-09T14:55:20.354Z,25.10
2022-08-09T14:57:48.987Z,24.70
2022-08-09T15:00:16.489Z,24.20
2022-08-09T15:02:47.528Z,24.60
2022-08-09T15:05:18.652Z,24.30
2022-08-09T15:07:56.633Z,24.60
2022-08-09T15:10:27.736Z,24.80
2022-08-09T15:12:55.280Z,24.60
2022-08-09T15:15:22.209Z,24.10
2022-08-09T15:17:52.345Z,24.50
2022-08-09T15:22:01.867Z,23.90
2022-08-09T15:24:01.831Z,24.20
2022-08-09T15:25:58.387Z,25.30
2022-08-09T15:28:27.466Z,24.90
2022-08-09T15:31:07.462Z,24.30
2022-08-09T15:34:17.992Z,24.30
2022-08-09T15:36:29.149Z,24.80
2022-08-09T15:39:00.489Z,25.90
2022-08-09T15:41:31.586Z,26.00
2022-08-09T15:44:01.686Z,26.30
2022-08-09T15:46:33.845Z,27.50
2022-08-09T15:49:20.695Z,27.50
2022-08-09T15:52:02.965Z,28.10
2022-08-09T15:54:44.231Z,27.10
2022-08-09T15:57:13.752Z,27.00
2022-08-09T15:59:41.128Z,27.10
2022-08-09T16:02:09.780Z,27.20
2022-08-09T16:04:40.270Z,27.80
2022-08-09T16:07:10.163Z,28.60
2022-08-09T16:09:57.542Z,28.60
2022-08-09T16:12:26.184Z,28.80
2022-08-09T16:14:57.656Z,28.20
2022-08-09T16:17:24.478Z,27.90
2022-08-09T16:20:05.280Z,27.80
2022-08-09T16:22:42.429Z,27.20
2022-08-09T16:25:15.937Z,27.40
2022-08-09T16:27:42.814Z,27.50
2022-08-09T16:30:15.253Z,27.90
2022-08-09T16:33:11.281Z,27.10
2022-08-09T16:35:56.810Z,26.70
2022-08-09T16:38:26.330Z,27.30
2022-08-09T16:40:53.216Z,26.90
2022-08-09T16:43:20.883Z,26.80
2022-08-09T16:45:53.447Z,27.30
2022-08-09T16:48:38.091Z,27.80
2022-08-09T16:51:14.191Z,27.30
2022-08-09T16:54:16.446Z,27.10
2022-08-09T16:56:32.561Z,26.80
2022-08-09T16:59:06.782Z,26.90
2022-08-09T17:01:37.266Z,26.90
2022-08-09T17:04:06.516Z,27.10
2022-08-09T17:07:09.289Z,27.40
2022-08-09T17:09:45.655Z,27.60
2022-08-09T17:12:08.106Z,27.10
2022-08-09T17:14:35.339Z,27.30
2022-08-09T17:17:02.838Z,27.90
2022-08-09T17:19:47.652Z,27.90
2022-08-09T17:22:23.493Z,30.30
2022-08-09T17:24:55.280Z,28.90
2022-08-09T17:27:22.796Z,28.70
2022-08-09T17:29:51.063Z,29.50
2022-08-09T17:32:20.303Z,30.60
2022-08-09T17:35:07.334Z,31.10
2022-08-09T17:38:11.770Z,30.00
2022-08-09T17:40:26.368Z,31.10
2022-08-09T17:42:59.878Z,31.50
2022-08-09T17:46:03.800Z,32.10
2022-08-09T17:48:29.301Z,36.00
2022-08-09T17:51:00.930Z,36.80
2022-08-09T17:53:43.280Z,34.10
2022-08-09T17:56:18.193Z,33.70
2022-08-09T17:58:45.347Z,34.60
2022-08-09T18:01:15.561Z,36.30
2022-08-09T18:03:49.942Z,38.40
2022-08-09T18:06:31.301Z,39.50
2022-08-09T18:09:03.651Z,40.20
2022-08-09T18:12:04.789Z,41.70
2022-08-09T18:14:21.893Z,42.10
2022-08-09T18:16:49.706Z,42.80
2022-08-09T18:21:00.101Z,40.90
2022-08-09T18:22:04.044Z,41.20
2022-08-09T18:24:31.247Z,42.90
2022-08-09T18:26:58.129Z,43.60
2022-08-09T18:30:41.447Z,42.40
2022-08-09T18:32:19.131Z,43.20
2022-08-09T18:34:46.145Z,44.30
2022-08-09T18:37:46.844Z,44.40
2022-08-09T18:40:02.119Z,45.00
2022-08-09T18:42:29.563Z,45.50
2022-08-09T18:44:57.022Z,46.10
2022-08-09T18:47:37.001Z,46.30
2022-08-09T18:50:05.949Z,47.20
2022-08-09T18:52:36.194Z,47.00
2022-08-09T18:55:04.133Z,46.50
2022-08-09T18:57:42.718Z,47.50
2022-08-09T19:00:10.829Z,48.00
2022-08-09T19:02:38.082Z,48.50
2022-08-09T19:05:19.707Z,48.50
2022-08-09T19:08:04.249Z,48.50
2022-08-09T19:10:38.946Z,48.90
2022-08-09T19:13:20.708Z,49.60
2022-08-09T19:15:56.491Z,49.70
2022-08-09T19:18:33.904Z,50.20
2022-08-09T19:21:09.153Z,50.80
2022-08-09T19:24:36.155Z,51.10
2022-08-09T19:26:32.151Z,51.60
2022-08-09T19:29:01.773Z,48.60
2022-08-09T19:31:43.898Z,48.20
2022-08-09T19:34:21.709Z,49.00
2022-08-09T19:36:51.609Z,48.80
2022-08-09T19:39:20.766Z,48.00
2022-08-09T19:42:05.734Z,48.80
2022-08-09T19:44:34.208Z,49.80
2022-08-09T19:47:01.785Z,49.80
2022-08-09T19:50:08.285Z,48.70
2022-08-09T19:52:15.909Z,47.70
2022-08-09T19:54:45.216Z,47.60
2022-08-09T19:57:12.437Z,48.00
2022-08-09T19:59:59.318Z,49.40
2022-08-09T20:04:12.329Z,48.90
2022-08-09T20:05:15.219Z,47.00
2022-08-09T20:07:59.377Z,48.00
2022-08-09T20:10:36.320Z,48.90
2022-08-09T20:13:05.346Z,48.80
2022-08-09T20:16:35.865Z,48.60
2022-08-09T20:18:20.164Z,47.30
2022-08-09T20:20:50.527Z,47.60
2022-08-09T20:23:20.992Z,46.40
2022-08-09T20:25:53.446Z,46.70
2022-08-09T20:28:28.205Z,45.70
2022-08-09T20:31:04.909Z,45.60
2022-08-09T20:33:40.886Z,45.60
2022-08-09T20:36:10.639Z,45.40
2022-08-09T20:41:32.041Z,46.00
2022-08-09T20:44:02.450Z,46.20
2022-08-09T20:46:41.826Z,46.60
2022-08-09T20:49:11.308Z,47.10
2022-08-09T20:51:40.879Z,45.80
2022-08-09T20:54:08.077Z,45.10
2022-08-09T20:56:41.024Z,46.90
2022-08-09T20:59:08.007Z,46.50
2022-08-09T21:01:50.122Z,45.90
2022-08-09T21:05:52.967Z,44.60
2022-08-09T21:07:13.236Z,45.10
2022-08-09T21:09:56.869Z,45.70
2022-08-09T21:15:13.571Z,45.50
2022-08-09T21:18:23.979Z,47.10
2022-08-09T21:20:30.061Z,46.40
2022-08-09T21:22:57.760Z,46.60
2022-08-09T21:25:44.356Z,47.20
2022-08-09T21:28:33.485Z,46.30
2022-08-09T21:31:19.371Z,46.70
2022-08-09T21:33:52.125Z,45.30
2022-08-09T21:36:27.935Z,46.10
2022-08-09T21:38:57.183Z,46.90
2022-08-09T21:42:04.706Z,45.90
2022-08-09T21:44:33.356Z,44.80
2022-08-09T21:47:05.305Z,44.80
2022-08-09T21:49:39.910Z,44.80
2022-08-09T21:52:16.526Z,45.70
2022-08-09T21:54:51.095Z,46.00
2022-08-09T21:57:38.302Z,47.40
2022-08-09T22:00:26.742Z,48.20
2022-08-09T22:03:04.689Z,48.00
2022-08-09T22:05:36.791Z,47.00
2022-08-09T22:08:13.133Z,48.10
2022-08-09T22:11:04.962Z,47.60
2022-08-09T22:13:34.731Z,48.10
2022-08-09T22:16:03.762Z,48.80
2022-08-09T22:18:33.019Z,48.70
2022-08-09T22:21:00.925Z,48.80
2022-08-09T22:23:35.430Z,48.10
2022-08-09T22:26:34.123Z,48.40
2022-08-09T22:29:05.364Z,49.30
2022-08-09T22:31:35.793Z,50.50
2022-08-09T22:34:02.733Z,49.80
2022-08-09T22:36:29.614Z,49.50
2022-08-09T22:39:20.754Z,50.40
2022-08-09T22:41:59.220Z,49.80
2022-08-09T22:44:32.793Z,49.90
2022-08-09T22:48:12.117Z,50.20
2022-08-09T22:49:47.546Z,50.40
2022-08-09T22:52:19.738Z,51.10
2022-08-09T22:54:47.117Z,51.00
2022-08-09T22:57:14.249Z,51.80
2022-08-09T22:59:58.383Z,52.40
2022-08-09T23:02:27.477Z,53.00
2022-08-09T23:04:54.829Z,52.80
2022-08-09T23:08:22.758Z,53.40
2022-08-09T23:10:30.491Z,54.00
2022-08-09T23:12:57.845Z,54.60
2022-08-09T23:15:24.745Z,54.80
2022-08-09T23:17:51.551Z,54.40
2022-08-09T23:20:18.365Z,54.60
2022-08-09T23:22:45.265Z,54.70
2022-08-09T23:25:12.103Z,52.90
2022-08-09T23:28:13.985Z,53.50
2022-08-09T23:30:25.741Z,53.50
2022-08-09T23:32:52.565Z,54.10
2022-08-09T23:35:19.397Z,54.70
2022-08-09T23:37:46.214Z,55.40
2022-08-09T23:40:13.420Z,55.80
2022-08-09T23:42:40.666Z,56.20
2022-08-09T23:45:08.866Z,56.60
2022-08-09T23:47:35.876Z,56.90
2022-08-09T23:50:02.795Z,57.90
2022-08-09T23:52:29.647Z,58.20
2022-08-09T23:54:57.828Z,58.20
2022-08-09T23:57:24.671Z,58.90
